Time;durP1;ratioP1;P1;durP2;ratioP2;P2;SDS_P1;SDS_P2;PMS_P1;PMS_P2;Temp;Humidity;BMP_temperature;BMP_pressure;BME280_temperature;BME280_humidity;BME280_pressure;Samples;Min_cycle;Max_cycle;Signal;HPM_P1;HPM_P2
2023/05/16 00:00:19;;;;;;;0.80;0.60;;;12.20;99.90;;;10.99;87.35;100466.22;5002520;28;19927;-76
2023/05/16 00:02:45;;;;;;;1.58;0.70;;;12.20;99.90;;;10.97;87.91;100461.94;5001433;28;20679;-76
2023/05/16 00:05:13;;;;;;;2.10;0.90;;;12.20;99.90;;;10.93;88.44;100463.91;4982382;28;20049;-76
2023/05/16 00:07:43;;;;;;;3.25;0.98;;;12.20;99.90;;;10.98;87.83;100468.94;4999228;28;20160;-76
2023/05/16 00:10:10;;;;;;;1.02;0.93;;;12.20;99.90;;;11.00;86.95;100456.53;5001997;28;20105;-76
2023/05/16 00:12:36;;;;;;;1.52;0.98;;;12.10;99.90;;;11.00;86.83;100453.91;4981309;28;20045;-76
2023/05/16 00:15:07;;;;;;;1.08;0.80;;;12.10;99.90;;;10.99;86.52;100457.44;4997110;28;20085;-76
2023/05/16 00:17:35;;;;;;;1.70;0.93;;;12.20;99.90;;;11.01;86.36;100459.06;4996557;28;20509;-76
2023/05/16 00:20:06;;;;;;;1.10;0.80;;;12.10;99.90;;;11.01;85.53;100466.13;5002141;28;20034;-76
2023/05/16 00:22:32;;;;;;;1.02;0.70;;;12.10;99.90;;;10.95;85.94;100463.81;4999500;28;20057;-75
2023/05/16 00:24:58;;;;;;;1.98;1.00;;;12.10;99.90;;;10.91;86.73;100465.78;4996623;28;20069;-77
2023/05/16 00:27:24;;;;;;;1.50;0.80;;;12.00;99.90;;;10.91;86.79;100459.63;5000229;28;20120;-77
2023/05/16 00:29:50;;;;;;;1.75;1.13;;;12.10;99.90;;;10.88;86.40;100456.25;4989908;28;20034;-76
2023/05/16 00:32:17;;;;;;;3.42;1.65;;;12.00;99.90;;;10.91;86.22;100463.13;4999155;28;20041;-76
2023/05/16 00:34:43;;;;;;;2.53;1.20;;;12.00;99.90;;;10.84;87.66;100451.19;4998346;28;20176;-76
2023/05/16 00:37:09;;;;;;;1.92;1.13;;;12.00;99.90;;;10.86;87.47;100454.59;4996693;28;20046;-77
2023/05/16 00:39:34;;;;;;;;;;;12.00;99.90;;;10.88;87.02;100460.66;4998920;28;20045;-76
2023/05/16 00:42:00;;;;;;;1.17;1.08;;;12.00;99.90;;;10.90;86.63;100457.94;4999092;28;20402;-76
2023/05/16 00:44:27;;;;;;;1.98;1.25;;;12.00;99.90;;;10.89;85.94;100449.19;4983031;28;20437;-76
2023/05/16 00:46:53;;;;;;;1.15;0.70;;;12.00;99.90;;;10.92;84.92;100456.09;4995948;28;20511;-76
2023/05/16 00:49:20;;;;;;;1.27;1.08;;;12.00;99.90;;;10.95;84.60;100458.53;4999924;28;20033;-76
2023/05/16 00:51:47;;;;;;;3.20;1.23;;;12.10;99.90;;;10.99;84.22;100460.09;5001020;28;20034;-76
2023/05/16 00:54:13;;;;;;;2.67;1.30;;;12.00;99.90;;;10.96;85.16;100463.75;4997453;28;20156;-76
2023/05/16 00:56:39;;;;;;;0.73;0.55;;;12.10;99.90;;;10.97;84.65;100460.19;4990973;28;20546;-76
2023/05/16 00:59:05;;;;;;;1.73;0.98;;;12.10;99.90;;;11.00;84.48;100464.44;4987117;28;20041;-77
2023/05/16 01:01:32;;;;;;;2.28;1.00;;;12.10;99.90;;;11.03;84.10;100466.91;4992705;28;20061;-76
2023/05/16 01:03:59;;;;;;;1.75;0.88;;;12.10;99.90;;;11.03;83.82;100465.09;4998469;28;20064;-76
2023/05/16 01:06:25;;;;;;;1.77;1.10;;;12.10;99.90;;;10.99;84.01;100458.31;4994686;28;20062;-76
2023/05/16 01:08:51;;;;;;;1.75;0.90;;;12.10;99.90;;;10.96;85.02;100460.25;5001272;28;20103;-76
2023/05/16 01:11:33;;;;;;;1.80;0.98;;;12.00;99.90;;;10.85;86.04;100456.41;4999102;28;20041;-77
2023/05/16 01:14:32;;;;;;;2.08;1.10;;;12.00;99.90;;;10.86;85.40;100460.75;4988493;28;20037;-77
2023/05/16 01:17:16;;;;;;;0.93;0.60;;;12.00;99.90;;;10.87;85.58;100457.16;5015868;28;20041;-77
2023/05/16 01:20:35;;;;;;;2.15;1.00;;;12.00;99.90;;;10.90;84.53;100450.03;5017751;28;20037;-76
2023/05/16 01:23:47;;;;;;;1.27;0.73;;;12.00;99.90;;;10.92;84.47;100456.09;4955253;28;20054;-76
2023/05/16 01:26:21;;;;;;;1.58;0.82;;;12.00;99.90;;;10.92;84.31;100461.34;5019463;28;21468;-76
2023/05/16 01:28:49;;;;;;;2.50;0.75;;;12.00;99.90;;;10.92;83.99;100463.97;4997786;28;20038;-76
2023/05/16 01:31:15;;;;;;;1.42;0.80;;;12.00;99.90;;;10.90;84.02;100457.94;4979664;28;20049;-77
2023/05/16 01:33:42;;;;;;;1.60;1.15;;;12.00;99.90;;;10.88;83.80;100463.28;4997591;28;20046;-76
2023/05/16 01:36:34;;;;;;;1.48;1.17;;;12.00;99.90;;;10.85;83.81;100458.19;5023371;28;20026;-77
2023/05/16 01:39:21;;;;;;;1.52;1.08;;;12.00;99.90;;;10.82;84.08;100455.69;5016414;28;20754;-76
2023/05/16 01:41:59;;;;;;;1.50;0.75;;;11.90;99.90;;;10.79;84.49;100451.44;5014948;28;20080;-77
2023/05/16 01:44:43;;;;;;;2.42;1.13;;;11.90;99.90;;;10.76;84.14;100456.88;5016943;28;20760;-76
2023/05/16 01:47:12;;;;;;;1.33;0.70;;;11.90;99.90;;;10.72;84.33;100463.22;4989622;28;20034;-76
2023/05/16 01:50:04;;;;;;;1.50;1.08;;;11.80;99.90;;;10.71;84.47;100453.63;4987626;28;20538;-77
2023/05/16 01:52:49;;;;;;;1.80;0.77;;;11.80;99.90;;;10.66;84.65;100453.00;4993633;28;20065;-76
2023/05/16 01:55:45;;;;;;;1.20;0.68;;;11.80;99.90;;;10.61;84.92;100457.66;5017504;28;20056;-75
2023/05/16 01:58:14;;;;;;;1.42;0.90;;;11.70;99.90;;;10.57;84.95;100448.22;4990268;28;20507;-75
2023/05/16 02:00:41;;;;;;;1.52;0.82;;;11.70;99.90;;;10.53;84.70;100455.41;4997796;28;20452;-75
2023/05/16 02:03:07;;;;;;;1.35;0.90;;;11.70;99.90;;;10.50;85.31;100460.00;4974525;28;20514;-75
2023/05/16 02:05:33;;;;;;;1.05;0.98;;;11.60;99.90;;;10.44;86.18;100456.72;5000260;28;20053;-75
2023/05/16 02:08:00;;;;;;;3.25;1.65;;;11.60;99.90;;;10.46;86.41;100467.19;4996392;28;20030;-75
2023/05/16 02:10:26;;;;;;;2.97;1.60;;;11.60;99.90;;;10.45;87.01;100466.34;4979875;28;20038;-75
2023/05/16 02:12:52;;;;;;;4.60;2.70;;;11.60;99.90;;;10.45;88.42;100468.09;4989519;28;20060;-75
2023/05/16 02:15:19;;;;;;;8.00;3.08;;;11.60;99.90;;;10.45;89.44;100465.47;4999718;28;20033;-75
2023/05/16 02:17:46;;;;;;;8.77;2.75;;;11.60;99.90;;;10.44;90.67;100471.69;4989427;28;20030;-75
2023/05/16 02:20:12;;;;;;;8.20;3.40;;;11.60;99.90;;;10.45;91.13;100474.25;4996616;28;20026;-75
2023/05/16 02:22:38;;;;;;;5.22;2.90;;;11.60;99.90;;;10.48;90.74;100478.50;4994523;28;20117;-75
2023/05/16 02:25:05;;;;;;;13.20;3.60;;;11.70;99.90;;;10.48;90.93;100489.03;4997310;28;20499;-75
2023/05/16 02:27:32;;;;;;;6.60;3.00;;;11.70;99.90;;;10.49;90.52;100490.72;4987937;28;20050;-75
2023/05/16 02:29:58;;;;;;;10.27;3.60;;;11.70;99.90;;;10.49;90.29;100485.44;4988435;28;20109;-75
2023/05/16 02:32:25;;;;;;;9.00;3.80;;;11.70;99.90;;;10.49;90.04;100489.88;4989127;28;20697;-75
2023/05/16 02:34:50;;;;;;;7.57;3.20;;;11.60;99.90;;;10.45;91.08;100484.78;4989428;28;20034;-75
2023/05/16 02:37:16;;;;;;;9.55;4.15;;;11.60;99.90;;;10.43;91.34;100486.63;4981144;28;20553;-75
2023/05/16 02:39:42;;;;;;;7.00;3.20;;;11.60;99.90;;;10.38;91.02;100490.41;4993123;28;20057;-75
2023/05/16 02:42:08;;;;;;;;;;;11.60;99.90;;;10.35;91.90;100486.16;4997964;28;20037;-75
2023/05/16 02:44:34;;;;;;;7.40;2.90;;;11.50;99.90;;;10.29;92.64;100496.09;4986846;28;19925;-75
2023/05/16 02:47:00;;;;;;;9.95;3.80;;;11.50;99.90;;;10.21;92.29;100491.19;4989160;28;20502;-75
2023/05/16 02:49:25;;;;;;;7.85;4.25;;;11.40;99.90;;;10.20;91.63;100497.41;4989134;28;20034;-75
2023/05/16 02:51:51;;;;;;;10.15;4.47;;;11.40;99.90;;;10.18;91.49;100494.84;4996963;28;20457;-75
2023/05/16 02:54:17;;;;;;;;;;;11.40;99.90;;;10.17;92.34;100494.91;4991255;28;20452;-75
2023/05/16 02:56:43;;;;;;;9.52;3.75;;;11.40;99.90;;;10.12;92.43;100497.75;4986179;28;20597;-74
2023/05/16 02:59:10;;;;;;;11.40;4.45;;;11.30;99.90;;;10.11;92.26;100503.09;4997941;28;20044;-75
2023/05/16 03:01:36;;;;;;;10.48;4.20;;;11.30;99.90;;;10.10;92.32;100498.75;4996658;28;20120;-74
2023/05/16 03:04:02;;;;;;;12.40;4.75;;;11.30;99.90;;;10.07;92.45;100497.97;4997387;28;20061;-74
2023/05/16 03:06:29;;;;;;;10.00;4.50;;;11.30;99.90;;;10.04;92.54;100495.50;4994042;28;20045;-74
2023/05/16 03:08:55;;;;;;;11.02;4.28;;;11.30;99.90;;;10.00;93.47;100504.47;4997558;28;20084;-74
2023/05/16 03:11:23;;;;;;;12.55;4.50;;;11.20;99.90;;;9.98;94.82;100501.06;4989139;28;20727;-74
2023/05/16 03:13:49;;;;;;;7.55;3.17;;;11.20;99.90;;;9.95;96.25;100510.88;4996772;28;20033;-74
2023/05/16 03:16:15;;;;;;;7.28;3.90;;;11.20;99.90;;;9.97;97.17;100516.91;4996426;28;20133;-75
2023/05/16 03:18:42;;;;;;;11.98;4.63;;;11.20;99.90;;;10.00;98.21;100517.63;4997359;28;20497;-75
2023/05/16 03:21:08;;;;;;;12.88;4.40;;;11.30;99.90;;;10.11;98.54;100525.00;5006161;28;20057;-75
2023/05/16 03:23:34;;;;;;;12.82;3.70;;;11.30;99.90;;;10.16;99.03;100525.63;4997887;28;20030;-74
2023/05/16 03:25:59;;;;;;;7.60;3.42;;;11.40;99.90;;;10.29;99.55;100532.94;4999338;28;20189;-74
2023/05/16 03:28:26;;;;;;;7.97;3.65;;;11.50;99.90;;;10.38;98.32;100535.16;4995164;28;20068;-75
2023/05/16 03:30:52;;;;;;;10.35;4.00;;;11.60;99.90;;;10.46;97.98;100531.22;4988190;28;20121;-74
2023/05/16 03:33:18;;;;;;;6.45;3.13;;;11.60;99.90;;;10.53;98.49;100533.53;4979140;28;20033;-75
2023/05/16 03:35:44;;;;;;;7.95;4.47;;;11.70;99.90;;;10.61;98.38;100526.13;4995630;28;20030;-75
2023/05/16 03:38:10;;;;;;;11.75;4.68;;;11.80;99.90;;;10.71;97.66;100535.25;4997136;28;20026;-74
2023/05/16 03:40:36;;;;;;;13.93;4.05;;;11.90;99.90;;;10.79;96.93;100546.25;4980857;28;20033;-74
2023/05/16 03:43:02;;;;;;;8.02;3.95;;;11.90;99.90;;;10.88;96.03;100540.53;4994626;28;20038;-75
2023/05/16 03:45:30;;;;;;;7.18;2.97;;;12.00;99.90;;;10.95;95.85;100541.09;4999054;28;20029;-75
2023/05/16 03:47:56;;;;;;;9.98;3.92;;;12.10;99.90;;;11.02;97.24;100547.72;4989081;28;20109;-76
2023/05/16 03:50:22;;;;;;;9.20;3.83;;;12.20;99.90;;;11.12;97.52;100548.09;4996742;28;20092;-75
2023/05/16 03:52:48;;;;;;;7.28;2.53;;;12.20;99.90;;;11.20;97.41;100551.19;4999351;28;20045;-75
2023/05/16 03:55:14;;;;;;;7.25;3.15;;;12.30;99.90;;;11.26;97.95;100542.13;4984014;28;20056;-74
2023/05/16 03:57:43;;;;;;;3.97;2.15;;;12.40;99.90;;;11.33;98.47;100542.66;4999667;28;21245;-75
2023/05/16 04:00:11;;;;;;;4.90;2.22;;;12.40;99.90;;;11.40;98.55;100551.94;5000509;28;20034;-74
2023/05/16 04:02:39;;;;;;;3.83;1.98;;;12.50;99.90;;;11.48;98.31;100555.03;4991479;28;20515;-75
2023/05/16 04:05:10;;;;;;;6.50;2.28;;;12.60;99.90;;;11.60;96.79;100561.44;5000368;28;20394;-75
2023/05/16 04:07:36;;;;;;;6.28;2.72;;;12.70;99.90;;;11.68;97.08;100560.09;4999238;28;20582;-75
2023/05/16 04:10:03;;;;;;;7.40;2.35;;;12.80;99.90;;;11.75;96.33;100567.66;5023242;28;20042;-75
2023/05/16 04:12:29;;;;;;;7.05;2.75;;;12.80;99.90;;;11.80;96.40;100563.84;4999534;28;20431;-75
2023/05/16 04:14:55;;;;;;;5.40;2.55;;;12.90;99.90;;;11.83;96.40;100568.09;4989410;28;20045;-75
2023/05/16 04:17:21;;;;;;;5.00;1.95;;;12.90;99.90;;;11.79;96.73;100567.44;4998015;28;20034;-74
2023/05/16 04:19:47;;;;;;;4.22;2.30;;;12.90;99.90;;;11.82;97.39;100569.03;5026323;28;20052;-75
2023/05/16 04:22:13;;;;;;;2.63;1.33;;;12.80;99.90;;;11.86;97.31;100578.50;4997728;28;20450;-75
2023/05/16 04:24:38;;;;;;;5.70;1.95;;;13.00;99.90;;;11.86;98.06;100578.50;4998443;28;20030;-75
2023/05/16 04:27:08;;;;;;;3.35;1.58;;;13.00;99.90;;;11.89;97.38;100586.25;4996346;28;20614;-75
2023/05/16 04:29:35;;;;;;;4.85;2.17;;;13.00;99.90;;;11.93;96.26;100594.88;4993296;28;20038;-75
2023/05/16 04:32:01;;;;;;;6.03;2.30;;;13.10;99.90;;;11.93;96.54;100590.44;4992076;28;20060;-75
2023/05/16 04:34:27;;;;;;;3.33;1.98;;;13.10;99.90;;;11.97;95.90;100589.34;4999659;28;20042;-75
2023/05/16 04:36:54;;;;;;;6.50;1.42;;;13.10;99.90;;;11.95;95.48;100588.56;4983492;28;20525;-75
2023/05/16 04:39:20;;;;;;;4.63;2.67;;;13.10;99.90;;;11.92;96.27;100588.72;4998553;28;20120;-75
2023/05/16 04:41:46;;;;;;;3.88;1.55;;;13.10;99.90;;;11.95;95.98;100583.31;4989927;28;20138;-75
2023/05/16 04:44:11;;;;;;;2.92;1.33;;;13.10;99.90;;;12.01;94.84;100590.88;4990320;28;20042;-75
2023/05/16 04:46:37;;;;;;;;;;;13.10;99.90;;;12.03;95.60;100599.56;4992129;28;20681;-75
2023/05/16 04:49:03;;;;;;;5.68;1.10;;;13.10;99.90;;;11.99;95.32;100595.41;4999269;28;19923;-75
2023/05/16 04:51:30;;;;;;;;;;;13.10;99.90;;;12.03;95.09;100596.06;4995789;28;20102;-74
2023/05/16 04:53:56;;;;;;;;;;;13.10;99.90;;;11.95;95.99;100607.03;4982474;28;19917;-75
2023/05/16 04:56:21;;;;;;;1.42;0.75;;;13.00;99.90;;;11.89;95.96;100610.00;4998460;28;19971;-75
2023/05/16 04:58:47;;;;;;;;;;;13.00;99.90;;;11.83;96.76;100618.22;5001109;28;20121;-75
2023/05/16 05:01:13;;;;;;;2.40;1.27;;;12.90;99.90;;;11.75;96.97;100608.09;4998900;28;19947;-75
2023/05/16 05:03:39;;;;;;;;;;;12.90;99.90;;;11.68;96.85;100604.94;4997938;28;20507;-74
2023/05/16 05:06:05;;;;;;;2.00;1.42;;;12.90;99.90;;;11.61;98.01;100632.53;4989741;28;19975;-75
2023/05/16 05:08:30;;;;;;;2.58;1.33;;;12.80;99.90;;;11.60;97.37;100635.28;4999530;28;20045;-75
2023/05/16 05:10:56;;;;;;;2.08;1.38;;;12.80;99.90;;;11.60;97.24;100638.75;4989908;28;20113;-76
2023/05/16 05:13:23;;;;;;;3.65;2.00;;;12.70;99.90;;;11.52;97.71;100638.31;4990507;28;20670;-75
2023/05/16 05:15:51;;;;;;;2.40;1.55;;;12.70;99.90;;;11.50;98.35;100643.66;4998548;28;20446;-75
2023/05/16 05:18:17;;;;;;;7.35;1.98;;;12.70;99.90;;;11.53;98.30;100642.63;4974213;28;20034;-75
2023/05/16 05:20:43;;;;;;;2.67;1.55;;;12.70;99.90;;;11.41;99.09;100644.13;4992647;28;20084;-74
2023/05/16 05:23:09;;;;;;;3.20;1.65;;;12.70;99.90;;;11.39;100.00;100646.00;4999043;28;20041;-74
2023/05/16 05:25:35;;;;;;;1.70;1.08;;;12.70;99.90;;;11.34;100.00;100641.88;4998632;28;20037;-75
2023/05/16 05:28:02;;;;;;;3.17;2.15;;;12.60;99.90;;;11.33;100.00;100648.94;4998679;28;20042;-75
2023/05/16 05:30:28;;;;;;;1.13;0.80;;;12.60;99.90;;;11.26;100.00;100644.91;4996214;28;20038;-75
2023/05/16 05:32:55;;;;;;;0.95;0.52;;;12.50;99.90;;;11.16;100.00;100656.84;5022945;28;20388;-75
2023/05/16 05:35:20;;;;;;;1.95;1.30;;;12.40;99.90;;;11.02;100.00;100660.19;4992716;28;20033;-75
2023/05/16 05:37:46;;;;;;;2.58;1.83;;;12.40;99.90;;;11.06;100.00;100665.22;4996268;28;20107;-75
2023/05/16 05:40:12;;;;;;;1.77;1.27;;;12.40;99.90;;;11.00;100.00;100667.31;4990672;28;20030;-75
2023/05/16 05:42:38;;;;;;;2.10;1.38;;;12.30;99.90;;;11.01;100.00;100666.34;4998817;28;20079;-75
2023/05/16 05:45:04;;;;;;;6.75;2.10;;;12.30;99.90;;;11.07;100.00;100672.19;4998393;28;20035;-75
2023/05/16 05:47:30;;;;;;;2.67;1.60;;;12.40;99.90;;;11.12;100.00;100679.84;5000791;28;20041;-74
2023/05/16 05:49:56;;;;;;;1.83;1.33;;;12.30;99.90;;;11.16;100.00;100691.94;4996091;28;20049;-75
2023/05/16 05:52:22;;;;;;;3.20;1.50;;;12.30;99.90;;;11.12;100.00;100698.28;4999519;28;20152;-75
2023/05/16 05:54:48;;;;;;;5.95;2.28;;;12.40;99.90;;;11.24;100.00;100702.13;4997505;28;20041;-75
2023/05/16 05:57:14;;;;;;;5.45;2.10;;;12.50;99.90;;;11.32;100.00;100707.00;5000502;28;20033;-75
2023/05/16 05:59:40;;;;;;;3.33;2.30;;;12.50;99.90;;;11.41;100.00;100710.03;4999324;28;20069;-75
2023/05/16 06:02:06;;;;;;;1.80;1.08;;;12.50;99.90;;;11.34;99.22;100715.69;4997005;28;20037;-75
2023/05/16 06:04:32;;;;;;;5.30;2.30;;;12.60;99.90;;;11.65;98.77;100713.22;4998302;28;20086;-75
2023/05/16 06:06:58;;;;;;;2.08;1.42;;;12.70;99.90;;;12.25;97.43;100731.22;4981099;28;20046;-75
2023/05/16 06:09:24;;;;;;;4.28;2.13;;;12.80;99.90;;;13.11;93.32;100744.16;5003239;28;20034;-75
2023/05/16 06:11:50;;;;;;;;;;;12.80;99.90;;;13.11;88.77;100736.22;5000738;28;20123;-75
2023/05/16 06:14:15;;;;;;;1.52;0.95;;;13.00;99.90;;;12.92;86.77;100746.97;5024581;28;19917;-75
2023/05/16 06:16:41;;;;;;;;;;;13.00;99.90;;;12.55;86.07;100733.16;4995504;28;20053;-75
2023/05/16 06:19:08;;;;;;;2.90;1.42;;;13.00;99.90;;;12.04;87.55;100725.28;4997596;28;19932;-75
2023/05/16 06:21:34;;;;;;;1.02;0.70;;;12.80;99.90;;;11.59;89.00;100723.22;4991419;28;20139;-75
2023/05/16 06:24:00;;;;;;;2.83;0.82;;;12.60;99.90;;;11.15;90.83;100723.66;4991291;28;20038;-74
2023/05/16 06:26:26;;;;;;;3.35;1.30;;;12.50;99.90;;;11.09;92.82;100727.44;4997600;28;20100;-75
2023/05/16 06:28:51;;;;;;;1.67;0.50;;;12.40;99.90;;;10.94;94.13;100718.50;4999275;28;20038;-74
2023/05/16 06:31:17;;;;;;;0.52;0.50;;;12.20;99.90;;;10.82;95.37;100725.22;4989070;28;20121;-74
2023/05/16 06:33:43;;;;;;;;;;;12.20;99.90;;;10.82;96.50;100734.88;4998452;28;20514;-75
2023/05/16 06:36:11;;;;;;;0.85;0.55;;;12.10;99.90;;;10.65;97.00;100736.56;4979831;28;19928;-75
2023/05/16 06:38:37;;;;;;;2.33;0.88;;;12.10;99.90;;;10.65;97.43;100751.50;4979562;28;20065;-74
2023/05/16 06:41:03;;;;;;;1.80;1.20;;;12.00;99.90;;;10.67;96.44;100750.50;5014653;28;20063;-74
2023/05/16 06:43:28;;;;;;;;;;;12.00;99.90;;;10.48;95.94;100752.28;4994191;28;20046;-74
2023/05/16 06:45:54;;;;;;;1.35;0.43;;;11.90;99.90;;;10.48;95.79;100751.44;4999898;28;20642;-75
2023/05/16 06:48:20;;;;;;;;;;;11.90;99.90;;;10.46;95.95;100767.28;4997037;28;20022;-75
2023/05/16 06:50:48;;;;;;;0.25;0.25;;;11.80;99.90;;;10.44;95.42;100762.09;4987999;28;19921;-74
2023/05/16 06:53:14;;;;;;;1.10;0.70;;;11.80;99.90;;;10.46;95.86;100772.56;4996901;28;20042;-75
2023/05/16 06:55:40;;;;;;;1.38;0.40;;;11.70;99.90;;;10.37;95.35;100765.91;4996523;28;20037;-75
2023/05/16 06:58:05;;;;;;;0.73;0.30;;;11.70;99.90;;;10.46;94.97;100781.28;4998286;28;20038;-74
2023/05/16 07:00:31;;;;;;;0.55;0.52;;;11.70;99.90;;;10.44;94.42;100785.78;5008086;28;20064;-75
2023/05/16 07:02:57;;;;;;;;;;;11.70;99.90;;;10.33;94.32;100779.28;5001291;28;20044;-75
2023/05/16 07:05:23;;;;;;;1.60;0.60;;;11.70;99.90;;;10.38;93.53;100785.19;5000306;28;19921;-75
2023/05/16 07:07:48;;;;;;;2.75;0.60;;;11.70;99.90;;;10.54;93.35;100787.97;4994533;28;20117;-75
2023/05/16 07:10:15;;;;;;;0.65;0.65;;;11.80;99.90;;;10.68;92.45;100785.59;4992013;28;20049;-75
2023/05/16 07:12:42;;;;;;;0.55;0.47;;;11.90;99.90;;;10.81;91.46;100791.13;4994582;28;20419;-74
2023/05/16 07:15:08;;;;;;;3.63;0.95;;;12.00;99.90;;;10.84;90.85;100794.50;4994261;28;20037;-75
2023/05/16 07:17:34;;;;;;;0.57;0.20;;;12.00;99.90;;;10.84;89.83;100797.13;4994682;28;20056;-75
2023/05/16 07:20:00;;;;;;;4.20;1.88;;;12.00;99.90;;;10.80;88.98;100803.47;4981104;28;20041;-75
2023/05/16 07:22:25;;;;;;;;;;;12.00;99.90;;;10.95;88.61;100808.91;4988821;28;20038;-76
2023/05/16 07:24:55;;;;;;;0.35;0.35;;;12.10;99.90;;;10.93;88.37;100809.00;4997874;28;19992;-75
2023/05/16 07:27:22;;;;;;;0.98;0.50;;;12.10;99.90;;;10.99;87.96;100815.75;4998885;28;20034;-75
2023/05/16 07:29:47;;;;;;;1.48;0.60;;;12.20;99.90;;;11.09;87.29;100822.31;4985957;28;20049;-75
2023/05/16 07:32:13;;;;;;;4.75;0.57;;;12.20;99.90;;;11.16;86.43;100823.72;4991114;28;20034;-75
2023/05/16 07:34:39;;;;;;;1.00;0.77;;;12.30;99.90;;;11.22;86.14;100833.13;4989368;28;20398;-75
2023/05/16 07:37:11;;;;;;;3.40;0.70;;;12.30;99.90;;;11.13;84.89;100833.56;5000803;28;20037;-75
2023/05/16 07:39:38;;;;;;;0.10;0.10;;;12.30;99.90;;;11.08;84.71;100832.00;4992554;28;20060;-75
2023/05/16 07:42:07;;;;;;;0.47;0.47;;;12.30;99.90;;;11.04;84.37;100825.16;4991495;28;20038;-74
2023/05/16 07:44:33;;;;;;;0.40;0.30;;;12.30;99.90;;;11.25;84.02;100836.50;4998415;28;20112;-75
2023/05/16 07:46:59;;;;;;;0.85;0.70;;;12.40;99.90;;;11.41;83.44;100833.09;4984609;28;20046;-75
2023/05/16 07:49:25;;;;;;;0.30;0.30;;;12.40;99.90;;;11.22;82.19;100823.44;4988489;28;20054;-75
2023/05/16 07:51:51;;;;;;;1.90;0.60;;;12.40;99.90;;;11.31;82.51;100827.41;4993692;28;20045;-75
2023/05/16 07:54:16;;;;;;;0.20;0.20;;;12.90;99.90;;;11.32;81.72;100828.25;5001974;28;20106;-75
2023/05/16 07:56:42;;;;;;;;;;;12.50;99.90;;;11.36;81.08;100832.47;4984458;28;20046;-74
2023/05/16 07:59:09;;;;;;;0.40;0.40;;;12.50;99.90;;;11.27;79.84;100831.13;4974635;28;19949;-75
2023/05/16 08:01:35;;;;;;;1.77;1.65;;;12.50;99.90;;;11.33;79.68;100843.16;4992172;28;20121;-75
2023/05/16 08:04:01;;;;;;;4.55;0.75;;;12.50;99.90;;;11.35;79.71;100847.44;4999661;28;20120;-75
2023/05/16 08:06:28;;;;;;;0.70;0.40;;;12.60;99.90;;;11.60;79.53;100860.28;5000021;28;20125;-75
2023/05/16 08:08:55;;;;;;;0.10;0.10;;;12.70;99.90;;;11.76;78.53;100868.31;5000951;28;21789;-76
2023/05/16 08:11:21;;;;;;;1.75;0.40;;;12.80;99.90;;;11.84;77.94;100875.84;5021696;28;20030;-75
2023/05/16 08:13:50;;;;;;;0.90;0.32;;;12.90;99.90;;;11.82;77.58;100868.00;4990530;28;20030;-75
2023/05/16 08:16:16;;;;;;;1.08;0.40;;;12.90;99.90;;;11.93;77.03;100872.78;4989838;28;20385;-75
2023/05/16 08:18:41;;;;;;;1.55;1.02;;;13.00;99.90;;;11.90;76.43;100881.72;5000696;28;20034;-75
2023/05/16 08:21:12;;;;;;;0.90;0.25;;;13.00;99.90;;;12.03;76.79;100873.16;5017138;28;20087;-75
2023/05/16 08:23:38;;;;;;;3.92;0.85;;;13.10;99.90;;;12.17;75.65;100875.13;4998727;28;20038;-75
2023/05/16 08:26:03;;;;;;;1.45;0.35;;;13.30;99.90;;;12.30;75.07;100886.75;4998762;28;20037;-75
2023/05/16 08:28:30;;;;;;;1.23;0.50;;;13.30;99.90;;;12.46;74.87;100887.69;5000431;28;20026;-75
2023/05/16 08:30:55;;;;;;;;;;;13.30;99.90;;;12.43;73.57;100882.53;5000167;28;20038;-75
2023/05/16 08:33:21;;;;;;;0.52;0.10;;;13.50;99.90;;;12.69;73.55;100885.63;4983225;28;20004;-75
2023/05/16 08:35:48;;;;;;;11.30;0.52;;;13.70;99.90;;;12.76;72.90;100879.06;4999124;28;20038;-75
2023/05/16 08:38:14;;;;;;;9.43;3.72;;;13.80;99.90;;;12.86;72.62;100876.78;4997426;28;20510;-75
2023/05/16 08:40:41;;;;;;;2.05;0.22;;;13.80;99.90;;;12.83;72.81;100874.28;4999680;28;20026;-75
2023/05/16 08:43:07;;;;;;;0.10;0.10;;;13.80;99.90;;;12.85;71.78;100883.00;4991514;28;20076;-75
2023/05/16 08:45:34;;;;;;;5.82;1.10;;;13.90;99.90;;;12.92;72.30;100873.81;4998659;28;20041;-75
2023/05/16 08:48:00;;;;;;;2.08;0.22;;;14.00;99.90;;;13.07;72.46;100874.78;4998432;28;20049;-75
2023/05/16 08:50:31;;;;;;;0.05;0.05;;;14.00;99.90;;;13.20;72.28;100883.75;4993859;28;20049;-75
2023/05/16 08:53:06;;;;;;;1.27;0.30;;;14.10;99.90;;;13.02;71.75;100884.72;4990220;28;20060;-76
2023/05/16 08:55:32;;;;;;;0.70;0.40;;;14.10;99.90;;;13.10;71.68;100878.09;4996433;28;20031;-74
2023/05/16 08:57:59;;;;;;;0.10;0.10;;;14.10;99.90;;;13.05;71.04;100889.88;5007774;28;20030;-75
2023/05/16 09:00:26;;;;;;;0.10;0.10;;;14.10;99.90;;;13.10;71.69;100898.41;4999242;28;20069;-75
2023/05/16 09:02:53;;;;;;;1.02;0.93;;;14.20;99.90;;;13.20;71.84;100902.25;5001572;28;20050;-75
2023/05/16 09:05:24;;;;;;;4.25;1.20;;;14.10;99.90;;;13.03;71.14;100900.53;4998125;28;20048;-76
2023/05/16 09:07:50;;;;;;;2.42;0.65;;;14.00;99.90;;;12.80;71.44;100900.91;4990649;28;20568;-75
2023/05/16 09:10:18;;;;;;;3.80;0.45;;;14.10;99.90;;;13.01;71.46;100907.69;4998578;28;20125;-75
2023/05/16 09:12:44;;;;;;;0.75;0.43;;;14.00;99.90;;;13.09;71.92;100915.22;4997835;28;20046;-75
2023/05/16 09:15:11;;;;;;;0.35;0.17;;;14.20;99.90;;;13.26;71.20;100920.44;4997994;28;20125;-75
2023/05/16 09:17:45;;;;;;;1.65;0.40;;;14.20;99.90;;;13.42;70.72;100920.47;4991350;28;20026;-75
2023/05/16 09:20:17;;;;;;;0.20;0.10;;;14.30;99.90;;;13.15;70.51;100928.06;4997736;28;20649;-74
2023/05/16 09:23:02;;;;;;;2.10;0.43;;;14.30;99.90;;;13.20;70.58;100925.19;5003708;28;20103;-75
2023/05/16 09:25:32;;;;;;;3.60;0.93;;;14.30;99.90;;;13.34;70.71;100931.44;5013497;28;20033;-75
2023/05/16 09:28:02;;;;;;;3.42;0.08;;;14.30;99.90;;;13.13;71.02;100930.81;5015337;28;20045;-74
2023/05/16 09:30:33;;;;;;;6.95;0.63;;;14.20;99.90;;;13.01;70.63;100927.97;5022693;28;20573;-74
2023/05/16 09:33:08;;;;;;;0.68;0.10;;;14.20;99.90;;;13.04;70.57;100935.72;5008750;28;20026;-75
2023/05/16 09:35:38;;;;;;;0.25;0.05;;;14.10;99.90;;;13.04;70.99;100941.00;5018124;28;20041;-74
2023/05/16 09:38:04;;;;;;;0.10;0.10;;;14.00;99.90;;;12.95;70.17;100944.16;4998555;28;20399;-74
2023/05/16 09:40:33;;;;;;;0.20;0.20;;;14.00;99.90;;;12.80;70.20;100937.88;5004335;28;20088;-75
2023/05/16 09:43:07;;;;;;;0.80;0.20;;;13.90;99.90;;;12.80;70.69;100944.03;4997695;28;20044;-75
2023/05/16 09:45:36;;;;;;;3.22;0.45;;;13.90;99.90;;;12.92;70.92;100943.38;5018363;28;20036;-75
2023/05/16 09:48:14;;;;;;;1.38;0.25;;;13.90;99.90;;;12.93;71.14;100944.22;5001185;28;20034;-74
2023/05/16 09:50:46;;;;;;;0.88;0.30;;;13.90;99.90;;;12.85;69.93;100946.41;5024916;28;20034;-74
2023/05/16 09:53:13;;;;;;;0.75;0.52;;;13.90;99.90;;;12.73;70.37;100943.50;4992364;28;20531;-77
2023/05/16 09:55:44;;;;;;;0.32;0.15;;;13.90;99.90;;;12.84;70.72;100944.72;4990012;28;20034;-74
2023/05/16 09:58:13;;;;;;;9.65;1.55;;;13.90;99.90;;;12.84;70.16;100942.09;4993261;28;20030;-77
2023/05/16 10:00:43;;;;;;;0.75;0.47;;;13.90;99.90;;;13.00;69.85;100942.13;5007321;28;20133;-75
2023/05/16 10:03:13;;;;;;;6.13;0.57;;;14.10;99.90;;;13.22;69.28;100944.47;4983044;28;20034;-74
2023/05/16 10:05:41;;;;;;;0.68;0.35;;;14.10;99.90;;;13.04;69.35;100944.50;5001957;28;20036;-74
2023/05/16 10:08:08;;;;;;;0.32;0.10;;;14.10;99.90;;;13.11;69.42;100943.25;4987656;28;20038;-77
2023/05/16 10:10:37;;;;;;;2.38;1.15;;;14.20;99.90;;;13.23;69.38;100939.09;5000023;28;20034;-77
2023/05/16 10:13:08;;;;;;;0.80;0.25;;;14.10;99.90;;;12.89;67.84;100927.69;4975815;28;20041;-75
2023/05/16 10:15:36;;;;;;;1.08;0.32;;;14.00;99.90;;;12.85;68.60;100936.72;5000282;28;20026;-74
2023/05/16 10:18:06;;;;;;;0.15;0.10;;;14.00;99.90;;;12.96;68.67;100938.81;4983795;28;20034;-74